Terminal Aerodrome Forecast
Issued by NWS

Home | Current Version | Previous Version | Text Only | Print | Product List | Glossary On
Versions: 1 2 3 4 5 6 7 8 9 10 11 12 13 14 15 16 17 18 19 20 21 22 23 24 25 26 27 28 29
000
FTUS46 KPQR 310529
TAFONP
TAF
KONP 310529Z 3106/0106 23005KT 4SM -RA BR BKN009 OVC012
     FM311500 23006KT 4SM -RA BR OVC015
     FM311800 21006KT 6SM BR VCSH BKN050
     FM010400 00000KT 2SM BR OVC050=

USA.gov is the U.S. government's official web portal to all federal, state and local government web resources and services.